Time;durP1;ratioP1;P1;durP2;ratioP2;P2;SDS_P1;SDS_P2;PMS_P1;PMS_P2;Temp;Humidity;BMP_temperature;BMP_pressure;BME280_temperature;BME280_humidity;BME280_pressure;Samples;Min_cycle;Max_cycle;Signal;HPM_P1;HPM_P2
2022/04/16 00:00:44;;;;;;;18.17;12.07;;;;;;;8.98;81.98;100501.66;1735912;82;21265;-57
2022/04/16 00:03:50;;;;;;;16.60;12.37;;;;;;;8.94;82.03;100499.42;1736461;82;21230;-57
2022/04/16 00:06:57;;;;;;;16.65;12.37;;;;;;;8.91;82.12;100499.75;1735915;82;21237;-58
2022/04/16 00:10:04;;;;;;;16.52;11.97;;;;;;;8.90;82.15;100507.57;1735869;82;21212;-57
2022/04/16 00:13:11;;;;;;;16.93;11.73;;;;;;;8.89;82.20;100502.64;1735933;82;21206;-58
2022/04/16 00:16:18;;;;;;;17.20;11.70;;;;;;;8.91;82.23;100506.58;1735910;82;21187;-57
2022/04/16 00:19:26;;;;;;;16.67;11.53;;;;;;;8.93;82.11;100508.61;1735967;82;21384;-58
2022/04/16 00:22:33;;;;;;;15.93;11.15;;;;;;;8.93;81.96;100508.11;1735908;82;21242;-58
2022/04/16 00:25:43;;;;;;;16.62;10.50;;;;;;;8.95;81.78;100503.36;1735856;82;21200;-58
2022/04/16 00:28:50;;;;;;;14.55;10.18;;;;;;;8.97;81.58;100505.92;1735993;82;21250;-58
2022/04/16 00:31:56;;;;;;;13.88;9.38;;;;;;;8.95;81.28;100509.31;1736017;82;21218;-58
2022/04/16 00:35:03;;;;;;;12.28;9.58;;;;;;;8.93;81.04;100501.78;1736936;82;21376;-57
2022/04/16 00:38:10;;;;;;;14.40;9.50;;;;;;;8.90;80.87;100502.11;1736104;82;21214;-57
2022/04/16 00:41:16;;;;;;;15.43;9.48;;;;;;;8.88;80.81;100499.55;1679788;85;21205;-58
2022/04/16 00:44:21;;;;;;;12.63;9.05;;;;;;;8.88;80.77;100505.51;1754580;80;21310;-58
2022/04/16 00:47:26;;;;;;;16.90;9.50;;;;;;;8.87;80.74;100499.71;1759981;81;21186;-58
2022/04/16 00:50:35;;;;;;;15.70;9.55;;;;;;;8.87;80.71;100504.67;1760202;81;21213;-59
2022/04/16 00:53:41;;;;;;;11.12;8.80;;;;;;;8.90;80.68;100497.52;1760099;81;21217;-59
2022/04/16 00:56:47;;;;;;;12.78;8.55;;;;;;;8.90;80.53;100496.66;1760130;81;21237;-58
2022/04/16 00:59:57;;;;;;;15.90;8.90;;;;;;;8.91;80.43;100498.39;1760135;81;21363;-59
2022/04/16 01:03:04;;;;;;;15.90;8.85;;;;;;;8.88;80.25;100487.27;1760219;81;21221;-59
2022/04/16 01:06:16;;;;;;;13.03;8.55;;;;;;;8.86;80.09;100492.55;1735083;81;21301;-59
2022/04/16 01:09:20;;;;;;;14.13;9.38;;;;;;;8.84;80.21;100482.30;1760096;81;21317;-58
2022/04/16 01:12:27;;;;;;;15.08;9.63;;;;;;;8.85;80.27;100494.91;1760098;81;21186;-59
2022/04/16 01:15:34;;;;;;;13.43;10.13;;;;;;;8.84;80.28;100482.30;1760117;81;21448;-59
2022/04/16 01:18:41;;;;;;;13.43;9.28;;;;;;;8.84;80.22;100487.76;1760047;81;21249;-60
2022/04/16 01:21:46;;;;;;;13.68;9.30;;;;;;;8.85;80.26;100490.32;1760160;80;21190;-58
2022/04/16 01:24:53;;;;;;;15.50;10.18;;;;;;;8.84;80.21;100488.63;1760180;81;21233;-58
2022/04/16 01:28:00;;;;;;;14.43;8.40;;;;;;;8.85;80.12;100481.27;1760012;81;21209;-58
2022/04/16 01:31:06;;;;;;;14.68;9.00;;;;;;;8.84;80.04;100471.37;1760018;81;21210;-57
2022/04/16 01:34:14;;;;;;;14.80;8.95;;;;;;;8.84;80.13;100469.52;1760009;81;21208;-57
2022/04/16 01:37:23;;;;;;;13.80;9.50;;;;;;;8.84;80.09;100465.92;1759990;80;21205;-60
2022/04/16 01:40:30;;;;;;;15.48;9.38;;;;;;;8.82;80.02;100451.07;1760090;81;21229;-58
2022/04/16 01:43:37;;;;;;;13.75;9.25;;;;;;;8.81;80.07;100455.33;1760082;81;21200;-58
2022/04/16 01:46:42;;;;;;;14.00;9.38;;;;;;;8.79;80.09;100454.63;1697868;84;21178;-58
2022/04/16 01:49:48;;;;;;;12.93;8.93;;;;;;;8.76;80.01;100442.67;1699132;83;21201;-58
2022/04/16 01:52:54;;;;;;;13.22;9.55;;;;;;;8.73;80.04;100445.23;1698275;83;21197;-58
2022/04/16 01:56:00;;;;;;;13.00;9.05;;;;;;;8.73;80.06;100441.64;1682294;84;21321;-59
2022/04/16 01:59:08;;;;;;;11.93;8.38;;;;;;;8.71;80.09;100434.98;1698055;84;21206;-58
2022/04/16 02:02:14;;;;;;;16.25;9.15;;;;;;;8.69;79.99;100436.14;1698006;84;21197;-57
2022/04/16 02:05:22;;;;;;;13.80;9.00;;;;;;;8.66;80.00;100436.47;1699784;83;21221;-57
2022/04/16 02:08:27;;;;;;;15.38;9.73;;;;;;;8.63;80.15;100424.02;1699956;83;21244;-57
2022/04/16 02:11:33;;;;;;;15.20;8.65;;;;;;;8.63;80.30;100424.02;1698042;83;21261;-58
2022/04/16 02:14:39;;;;;;;12.82;8.53;;;;;;;8.64;80.31;100416.70;1698022;84;21217;-58
2022/04/16 02:17:45;;;;;;;15.70;9.65;;;;;;;8.62;80.30;100414.14;1699863;83;21198;-58
2022/04/16 02:20:51;;;;;;;13.22;9.33;;;;;;;8.62;80.42;100416.86;1698020;84;21281;-59
2022/04/16 02:23:57;;;;;;;12.90;9.15;;;;;;;8.62;80.51;100414.64;1698076;84;21218;-58
2022/04/16 02:27:05;;;;;;;13.78;9.18;;;;;;;8.60;80.49;100412.56;1701197;83;21592;-57
2022/04/16 02:30:13;;;;;;;16.23;9.73;;;;;;;8.60;80.63;100415.30;1680985;84;21210;-59
2022/04/16 02:33:20;;;;;;;14.83;9.55;;;;;;;8.59;80.64;100402.69;1665338;84;21232;-58
2022/04/16 02:36:26;;;;;;;15.23;9.88;;;;;;;8.59;80.65;100402.16;1698304;83;21213;-58
2022/04/16 02:39:34;;;;;;;13.58;9.75;;;;;;;8.58;80.68;100411.38;1700201;83;21201;-58
2022/04/16 02:42:44;;;;;;;15.93;9.85;;;;;;;8.55;80.65;100400.78;1680630;84;21296;-58
2022/04/16 02:49:20;;;;;;;16.73;10.75;;;;;;;8.53;80.97;100411.00;1741855;82;21794;-58
2022/04/16 02:52:29;;;;;;;18.73;12.20;;;;;;;8.53;80.97;100394.62;1723399;82;21238;-58
2022/04/16 02:55:34;;;;;;;19.55;11.90;;;;;;;8.48;80.99;100393.42;1741617;82;21194;-59
2022/04/16 02:58:42;;;;;;;19.82;11.08;;;;;;;8.40;81.06;100395.59;1741606;82;21226;-58
2022/04/16 03:01:48;;;;;;;24.87;15.45;;;;;;;8.35;81.25;100393.86;1741706;82;21182;-59
2022/04/16 03:04:56;;;;;;;18.73;11.65;;;;;;;8.31;81.47;100386.17;1741521;82;21202;-58
2022/04/16 03:08:04;;;;;;;15.78;10.68;;;;;;;8.29;81.68;100393.12;1741594;82;21292;-59
2022/04/16 03:11:11;;;;;;;16.07;10.55;;;;;;;8.27;81.83;100399.27;1741777;82;21261;-59
2022/04/16 03:17:42;;;;;;;19.65;11.65;;;;;;;8.33;82.21;100397.25;1741593;82;21210;-59
2022/04/16 03:20:50;;;;;;;17.30;11.65;;;;;;;8.33;82.01;100386.84;1741651;82;21202;-58
2022/04/16 03:23:57;;;;;;;19.30;11.65;;;;;;;8.32;82.09;100389.23;1741658;82;21277;-58
2022/04/16 03:27:05;;;;;;;17.02;11.75;;;;;;;8.32;82.18;100381.05;1741623;82;21182;-59
2022/04/16 03:30:12;;;;;;;19.40;12.45;;;;;;;8.33;82.23;100391.80;1741531;82;21194;-59
2022/04/16 03:33:17;;;;;;;24.35;17.00;;;;;;;8.34;82.32;100381.75;1741581;82;21226;-58
2022/04/16 03:36:25;;;;;;;18.20;12.58;;;;;;;8.39;82.48;100393.00;1741615;82;21198;-58
2022/04/16 03:39:31;;;;;;;16.40;12.25;;;;;;;8.49;82.47;100396.48;1723169;82;21229;-58
2022/04/16 03:42:36;;;;;;;21.37;12.75;;;;;;;8.57;82.40;100388.34;1741350;82;21217;-58
2022/04/16 03:45:44;;;;;;;23.75;15.03;;;;;;;8.67;82.11;100384.98;1741750;82;21195;-58
2022/04/16 03:48:52;;;;;;;24.25;12.28;;;;;;;8.72;81.84;100387.55;1699776;83;21252;-58
2022/04/16 03:52:02;;;;;;;18.77;11.80;;;;;;;8.78;81.67;100386.06;1700274;83;21260;-58
2022/04/16 04:01:59;;;;;;;18.82;11.93;;;;;;;8.97;80.99;100395.34;1701774;83;21220;-57
2022/04/16 04:05:06;;;;;;;18.07;10.90;;;;;;;9.05;80.88;100383.09;1700606;83;21787;-57
2022/04/16 04:08:15;;;;;;;15.08;10.85;;;;;;;9.12;80.54;100380.55;1701199;83;21240;-57
2022/04/16 04:11:22;;;;;;;18.52;11.12;;;;;;;9.18;80.42;100388.08;1699569;84;21224;-57
2022/04/16 04:14:28;;;;;;;15.75;11.08;;;;;;;9.24;80.23;100380.57;1699460;83;21209;-58
2022/04/16 04:17:34;;;;;;;14.55;9.83;;;;;;;9.32;80.08;100392.38;1700974;82;21272;-59
2022/04/16 04:20:39;;;;;;;35.08;25.65;;;;;;;9.40;79.92;100394.27;1698903;84;21280;-59
2022/04/16 04:23:47;;;;;;;18.05;11.90;;;;;;;9.50;79.71;100397.17;1656531;84;21224;-59
2022/04/16 04:26:53;;;;;;;15.23;10.08;;;;;;;9.58;79.25;100395.82;1669511;84;21243;-59
2022/04/16 04:30:04;;;;;;;16.73;10.23;;;;;;;9.67;79.10;100402.99;1728209;82;21268;-60
2022/04/16 04:33:08;;;;;;;14.35;9.75;;;;;;;9.79;78.84;100404.89;1727873;82;21252;-58
2022/04/16 04:36:14;;;;;;;13.53;9.38;;;;;;;9.89;78.40;100409.69;1728494;83;21153;-58
2022/04/16 04:39:20;;;;;;;17.30;9.75;;;;;;;9.96;78.01;100404.72;1730639;82;21288;-58
2022/04/16 04:42:36;;;;;;;17.85;10.72;;;;;;;10.04;77.52;100410.19;1728611;83;21193;-59
2022/04/16 04:45:42;;;;;;;14.35;10.40;;;;;;;10.10;76.96;100403.23;1728742;83;21205;-59
2022/04/16 04:48:51;;;;;;;14.85;10.08;;;;;;;10.11;76.49;100396.22;1687354;81;21225;-59
2022/04/16 04:51:57;;;;;;;20.92;10.58;;;;;;;10.16;76.30;100394.33;1702069;83;21213;-59
2022/04/16 04:55:08;;;;;;;19.15;13.00;;;;;;;10.18;75.96;100393.64;1728050;82;21322;-59
2022/04/16 04:58:14;;;;;;;14.85;10.65;;;;;;;10.22;75.85;100392.26;1726740;82;21241;-57
2022/04/16 05:01:21;;;;;;;16.40;10.60;;;;;;;10.24;75.66;100409.36;1713380;83;21189;-59
2022/04/16 05:04:28;;;;;;;13.80;10.13;;;;;;;10.25;75.40;100399.61;1715442;82;21248;-58
2022/04/16 05:07:34;;;;;;;13.93;9.35;;;;;;;10.28;75.43;100395.16;1699355;83;21651;-58
2022/04/16 05:10:41;;;;;;;12.58;9.00;;;;;;;10.35;75.43;100398.05;1699892;83;21200;-57
2022/04/16 05:13:46;;;;;;;14.25;8.35;;;;;;;10.43;75.26;100396.67;1724417;83;21543;-58
2022/04/16 05:16:52;;;;;;;14.65;8.68;;;;;;;10.45;74.93;100392.72;1698273;84;21255;-58
2022/04/16 05:20:03;;;;;;;11.28;8.88;;;;;;;10.48;74.73;100396.47;1698481;83;21309;-58
2022/04/16 05:23:08;;;;;;;16.67;9.93;;;;;;;10.55;74.65;100390.65;1704805;82;21239;-59
2022/04/16 05:26:19;;;;;;;13.03;8.45;;;;;;;10.62;74.48;100389.94;1735242;81;21205;-59
2022/04/16 05:29:32;;;;;;;12.25;8.48;;;;;;;10.69;74.40;100391.79;1681302;84;21281;-58
2022/04/16 05:32:45;;;;;;;14.55;8.90;;;;;;;10.78;74.15;100392.63;1699307;84;21213;-58
2022/04/16 05:35:53;;;;;;;13.72;8.83;;;;;;;10.84;73.91;100382.33;1698777;84;21225;-59
2022/04/16 05:38:59;;;;;;;12.95;9.63;;;;;;;10.91;73.88;100391.55;1709944;83;21761;-57
2022/04/16 05:42:06;;;;;;;14.23;9.38;;;;;;;10.99;73.93;100387.41;1709701;83;21217;-58
2022/04/16 05:45:17;;;;;;;14.55;9.68;;;;;;;11.07;73.80;100388.74;1709872;83;21245;-59
2022/04/16 05:48:23;;;;;;;15.38;9.60;;;;;;;11.14;73.43;100385.10;1709415;83;21225;-58
2022/04/16 05:51:29;;;;;;;14.50;9.10;;;;;;;11.19;73.22;100391.41;1709540;83;21272;-58
2022/04/16 05:54:36;;;;;;;18.00;11.40;;;;;;;11.24;73.11;100379.40;1713324;83;21213;-58
2022/04/16 05:57:44;;;;;;;15.05;8.60;;;;;;;11.34;73.01;100380.00;1735060;82;21220;-59
2022/04/16 06:00:50;;;;;;;13.25;8.65;;;;;;;11.42;72.94;100379.44;1694313;81;21211;-57
2022/04/16 06:03:57;;;;;;;13.38;8.73;;;;;;;11.53;72.73;100387.75;1697715;83;21224;-59
2022/04/16 06:07:06;;;;;;;15.55;10.90;;;;;;;11.61;72.54;100384.45;1689611;84;21365;-58
2022/04/16 06:10:27;;;;;;;12.88;9.10;;;;;;;11.72;72.47;100383.19;1685674;83;21232;-59
2022/04/16 06:13:34;;;;;;;14.58;8.40;;;;;;;11.81;72.09;100389.80;1685345;83;21337;-58
2022/04/16 06:16:42;;;;;;;11.95;8.35;;;;;;;11.90;71.64;100388.72;1689416;83;21227;-58
2022/04/16 06:19:57;;;;;;;14.53;8.38;;;;;;;11.98;71.37;100387.28;1674927;85;21319;-59
2022/04/16 06:23:18;;;;;;;11.28;8.20;;;;;;;12.07;70.94;100383.93;1676843;84;21244;-59
2022/04/16 06:26:24;;;;;;;13.93;7.87;;;;;;;12.15;70.56;100387.97;1728752;82;21223;-57
2022/04/16 06:29:31;;;;;;;13.43;8.03;;;;;;;12.27;70.65;100389.25;1713055;82;21221;-57
2022/04/16 06:32:35;;;;;;;12.07;8.28;;;;;;;12.44;70.23;100388.54;1695916;83;21196;-57
2022/04/16 06:35:42;;;;;;;15.83;8.90;;;;;;;12.66;69.44;100386.23;1697251;83;21216;-57
2022/04/16 06:38:47;;;;;;;13.80;8.88;;;;;;;12.77;68.46;100388.00;1698328;83;21752;-57
2022/04/16 06:41:54;;;;;;;14.03;9.50;;;;;;;12.92;67.99;100378.38;1697211;83;21713;-58
2022/04/16 06:45:00;;;;;;;12.43;8.85;;;;;;;13.05;66.89;100390.41;1697234;84;21227;-58
2022/04/16 06:48:05;;;;;;;12.98;8.78;;;;;;;13.14;66.78;100383.79;1692096;84;21277;-58
2022/04/16 06:51:10;;;;;;;14.05;7.85;;;;;;;13.26;66.23;100386.36;1657190;81;21720;-57
2022/04/16 06:54:16;;;;;;;12.73;8.45;;;;;;;13.31;65.43;100374.78;1667789;86;21277;-57
2022/04/16 06:57:21;;;;;;;15.20;8.48;;;;;;;13.39;65.34;100386.52;1683025;85;21208;-58
2022/04/16 07:00:30;;;;;;;13.62;8.95;;;;;;;13.46;64.82;100386.05;1681619;85;21196;-59
2022/04/16 07:03:36;;;;;;;18.52;9.43;;;;;;;13.58;64.37;100382.80;1653765;86;21783;-57
2022/04/16 07:06:44;;;;;;;17.95;8.58;;;;;;;13.72;63.73;100373.63;1667826;86;21214;-58
2022/04/16 07:09:53;;;;;;;12.82;8.40;;;;;;;13.85;63.64;100368.27;1682204;85;21820;-56
2022/04/16 07:12:59;;;;;;;15.40;8.75;;;;;;;14.03;62.93;100373.65;1682623;85;21201;-56
2022/04/16 07:16:05;;;;;;;14.25;9.38;;;;;;;14.15;62.59;100365.16;1668984;86;21253;-56
2022/04/16 07:19:12;;;;;;;11.78;8.90;;;;;;;14.23;61.71;100372.42;1682822;85;21772;-56
2022/04/16 07:22:21;;;;;;;13.83;8.75;;;;;;;14.30;61.99;100356.84;1682688;85;21200;-56
2022/04/16 07:25:29;;;;;;;14.33;8.75;;;;;;;14.44;61.61;100356.75;1680058;84;21220;-58
2022/04/16 07:28:36;;;;;;;13.78;8.93;;;;;;;14.57;61.00;100371.13;1773036;81;21249;-56
2022/04/16 07:31:43;;;;;;;13.08;8.40;;;;;;;14.72;61.66;100375.98;1766134;81;21190;-56
2022/04/16 07:34:50;;;;;;;14.98;8.78;;;;;;;14.93;60.86;100375.91;1766544;81;21351;-56
2022/04/16 07:38:00;;;;;;;11.22;8.55;;;;;;;15.05;60.35;100385.28;1766438;81;21207;-58
2022/04/16 07:41:08;;;;;;;12.58;8.68;;;;;;;15.19;60.23;100379.32;1766240;81;21644;-56
2022/04/16 07:44:14;;;;;;;13.70;9.13;;;;;;;15.40;59.59;100378.69;1765770;81;21206;-57
2022/04/16 07:47:28;;;;;;;21.65;13.98;;;;;;;15.55;59.00;100370.25;1706251;84;21226;-57
2022/04/16 07:50:34;;;;;;;13.43;8.73;;;;;;;15.68;59.16;100368.36;1657901;85;21189;-58
2022/04/16 07:53:42;;;;;;;14.75;8.78;;;;;;;15.83;58.23;100375.08;1658182;86;21259;-59
2022/04/16 07:56:51;;;;;;;17.62;8.43;;;;;;;15.84;57.07;100383.14;1658460;86;21251;-59
2022/04/16 07:59:59;;;;;;;16.23;9.43;;;;;;;15.79;56.74;100395.89;1657634;86;21243;-58
2022/04/16 08:03:06;;;;;;;13.30;8.98;;;;;;;15.72;56.88;100399.16;1657671;86;21390;-59
2022/04/16 08:06:13;;;;;;;12.80;8.40;;;;;;;15.61;56.70;100396.48;1649131;86;21217;-58
2022/04/16 08:09:19;;;;;;;12.07;8.60;;;;;;;15.57;57.16;100388.28;1649216;86;21264;-58
2022/04/16 08:12:28;;;;;;;11.93;9.05;;;;;;;15.64;57.16;100394.69;1648697;86;21789;-58
2022/04/16 08:15:34;;;;;;;17.45;9.40;;;;;;;15.70;57.39;100395.22;1647720;86;21260;-59
2022/04/16 08:18:43;;;;;;;13.35;9.33;;;;;;;15.85;57.29;100393.67;1648524;86;21267;-58
2022/04/16 08:21:53;;;;;;;13.20;9.40;;;;;;;15.97;56.42;100387.31;1647388;86;21197;-58
2022/04/16 08:28:24;;;;;;;17.77;10.05;;;;;;;16.12;56.35;100371.41;1648049;85;21209;-58
2022/04/16 08:31:36;;;;;;;13.72;9.18;;;;;;;16.19;56.39;100368.63;1648770;85;21161;-58
2022/04/16 08:34:43;;;;;;;14.30;9.93;;;;;;;16.31;56.31;100374.70;1630644;87;21259;-58
2022/04/16 08:37:50;;;;;;;12.00;8.48;;;;;;;16.48;55.95;100372.37;1633328;85;21260;-58
2022/04/16 08:40:56;;;;;;;12.82;8.08;;;;;;;16.68;55.94;100370.42;1647639;86;21745;-59
2022/04/16 08:44:02;;;;;;;11.40;8.28;;;;;;;16.78;55.42;100362.55;1675099;84;21621;-59
2022/04/16 08:47:08;;;;;;;11.65;8.75;;;;;;;16.89;55.72;100350.81;1654236;85;21291;-57
2022/04/16 08:50:17;;;;;;;14.55;11.03;;;;;;;16.89;55.71;100344.42;1678036;85;21292;-58
2022/04/16 08:53:23;;;;;;;11.65;9.10;;;;;;;16.75;55.32;100348.30;1678795;84;21591;-58
2022/04/16 08:56:28;;;;;;;18.70;9.35;;;;;;;16.80;55.59;100338.30;1701481;84;21198;-58
2022/04/16 08:59:34;;;;;;;17.77;8.60;;;;;;;16.95;55.81;100336.66;1699699;84;21271;-58
2022/04/16 09:02:41;;;;;;;13.93;8.48;;;;;;;17.05;55.16;100333.74;1703328;84;21232;-57
2022/04/16 09:05:46;;;;;;;10.80;8.83;;;;;;;17.11;55.55;100341.16;1708217;83;21204;-57
2022/04/16 09:08:52;;;;;;;11.48;8.83;;;;;;;17.18;54.60;100332.83;1707532;83;21229;-57
2022/04/16 09:11:58;;;;;;;15.58;9.00;;;;;;;17.22;54.32;100339.64;1704762;84;21666;-58
2022/04/16 09:15:09;;;;;;;15.08;8.83;;;;;;;17.29;54.44;100348.74;1680060;85;21312;-58
2022/04/16 09:18:17;;;;;;;13.93;9.73;;;;;;;17.56;54.09;100342.89;1678759;85;21210;-58
2022/04/16 09:21:25;;;;;;;13.30;9.08;;;;;;;17.71;53.47;100346.19;1679368;85;21368;-58
2022/04/16 09:24:30;;;;;;;12.03;8.68;;;;;;;17.87;53.30;100348.42;1708654;82;21228;-58
2022/04/16 09:27:54;;;;;;;13.22;9.58;;;;;;;18.11;53.28;100345.92;1684049;84;21188;-58
2022/04/16 09:31:04;;;;;;;12.70;8.98;;;;;;;18.28;53.14;100342.37;1676070;85;21848;-58
2022/04/16 09:34:13;;;;;;;13.62;9.28;;;;;;;18.37;52.34;100339.61;1698275;83;21267;-59
2022/04/16 09:37:22;;;;;;;11.75;9.05;;;;;;;18.35;51.77;100345.91;1697707;84;21200;-58
2022/04/16 09:40:28;;;;;;;16.00;9.60;;;;;;;18.35;51.93;100338.13;1661852;85;22165;-58
2022/04/16 09:43:43;;;;;;;14.50;9.00;;;;;;;18.36;51.79;100340.67;1682251;85;21240;-58
2022/04/16 09:46:49;;;;;;;17.23;9.80;;;;;;;18.36;51.79;100339.84;1663493;85;21296;-57
2022/04/16 09:49:57;;;;;;;11.57;9.28;;;;;;;18.38;52.25;100334.41;1655259;86;21291;-58
2022/04/16 09:53:07;;;;;;;16.90;8.93;;;;;;;18.39;51.90;100338.89;1647298;85;21914;-59
2022/04/16 09:56:19;;;;;;;14.40;10.10;;;;;;;18.45;52.17;100341.27;1610093;87;21239;-57
2022/04/16 09:59:44;;;;;;;12.73;9.48;;;;;;;18.32;51.72;100347.75;1890965;73;22762;-59
2022/04/16 10:02:57;;;;;;;12.58;10.45;;;;;;;18.19;52.12;100347.86;1879428;76;21160;-57
2022/04/16 10:06:07;;;;;;;13.80;10.28;;;;;;;18.19;52.87;100342.32;1837948;77;21173;-58
2022/04/16 10:09:21;;;;;;;15.00;9.85;;;;;;;18.19;52.29;100346.48;1838673;76;21176;-58
2022/04/16 10:16:19;;;;;;;15.43;9.98;;;;;;;18.41;52.67;100352.52;1839927;76;21161;-59
2022/04/16 10:19:26;;;;;;;20.15;11.00;;;;;;;18.51;51.86;100355.60;1840310;76;21169;-59
2022/04/16 10:22:36;;;;;;;13.20;9.53;;;;;;;18.60;51.73;100355.64;1851878;76;21522;-59
2022/04/16 10:25:48;;;;;;;14.38;9.95;;;;;;;18.73;50.56;100359.65;1849982;76;21196;-59
2022/04/16 10:29:01;;;;;;;14.83;10.63;;;;;;;18.87;50.61;100352.87;1859874;76;21157;-58
2022/04/16 10:32:07;;;;;;;18.17;10.88;;;;;;;19.05;50.40;100356.53;1840264;76;21157;-59
2022/04/16 10:35:14;;;;;;;46.83;30.35;;;;;;;19.05;51.07;100344.03;1852397;76;21462;-58
2022/04/16 10:38:32;;;;;;;32.33;16.82;;;;;;;19.00;50.93;100356.36;1872434;76;21722;-59
2022/04/16 10:41:38;;;;;;;20.50;12.30;;;;;;;19.03;50.70;100357.29;1872071;76;21166;-58
2022/04/16 10:44:53;;;;;;;16.85;11.70;;;;;;;19.15;51.10;100362.36;1856185;76;22074;-59
2022/04/16 10:47:59;;;;;;;15.88;10.95;;;;;;;19.36;51.01;100361.06;1847749;76;21153;-59
2022/04/16 10:51:07;;;;;;;15.63;10.80;;;;;;;19.51;49.90;100358.74;1835802;77;21166;-58
2022/04/16 10:54:27;;;;;;;14.10;10.68;;;;;;;19.70;49.06;100356.23;1846638;76;21242;-59
2022/04/16 10:57:33;;;;;;;15.70;11.55;;;;;;;19.84;48.69;100361.05;1845323;76;21531;-58
2022/04/16 11:00:49;;;;;;;14.23;10.25;;;;;;;20.04;48.25;100350.49;1800522;79;21287;-59
2022/04/16 11:03:58;;;;;;;17.73;12.28;;;;;;;20.16;48.00;100351.38;1801069;79;21192;-58
2022/04/16 11:07:08;;;;;;;17.75;11.43;;;;;;;20.34;47.72;100342.97;1801735;79;21160;-58
2022/04/16 11:10:19;;;;;;;14.40;10.98;;;;;;;20.58;47.46;100341.89;1801193;79;21172;-58
2022/04/16 11:13:25;;;;;;;21.77;11.48;;;;;;;20.74;47.06;100337.83;1800816;79;21180;-58
2022/04/16 11:16:31;;;;;;;19.07;9.80;;;;;;;20.85;46.97;100345.02;1782639;79;21713;-58
2022/04/16 11:19:36;;;;;;;18.10;9.73;;;;;;;20.96;46.21;100339.48;1801385;79;21199;-58
2022/04/16 11:22:41;;;;;;;16.62;10.55;;;;;;;20.88;46.41;100337.05;1768033;79;21203;-59
2022/04/16 11:36:06;;;;;;;15.78;9.08;;;;;;;20.78;45.92;100322.89;1801545;79;21171;-59
2022/04/16 11:39:11;;;;;;;15.05;9.38;;;;;;;20.94;45.37;100318.50;1802239;79;21717;-58
2022/04/16 11:42:17;;;;;;;11.73;9.30;;;;;;;21.08;45.25;100329.70;1803027;79;21152;-58
2022/04/16 11:45:25;;;;;;;12.60;8.80;;;;;;;21.12;44.53;100328.96;1802668;79;21301;-58
2022/04/16 11:48:34;;;;;;;15.53;9.40;;;;;;;21.09;44.29;100314.70;1802382;79;21270;-60
2022/04/16 11:51:41;;;;;;;13.50;8.65;;;;;;;21.02;44.52;100315.37;1803881;78;21162;-59
2022/04/16 11:54:47;;;;;;;13.03;9.25;;;;;;;20.84;44.70;100307.99;1834347;77;21184;-59
2022/04/16 11:57:57;;;;;;;14.40;9.98;;;;;;;20.68;44.51;100309.59;1834107;77;21176;-59
2022/04/16 12:01:04;;;;;;;12.58;9.53;;;;;;;20.47;45.17;100310.19;1850339;75;21737;-59
2022/04/16 12:04:14;;;;;;;15.13;10.13;;;;;;;20.30;45.28;100309.76;1856165;76;21227;-58
2022/04/16 12:07:25;;;;;;;12.70;9.70;;;;;;;20.12;45.58;100314.02;1827474;76;21212;-57
2022/04/16 12:10:35;;;;;;;14.93;9.08;;;;;;;20.00;46.41;100307.57;1862456;76;21486;-59
2022/04/16 12:13:43;;;;;;;17.57;12.10;;;;;;;19.89;46.94;100301.45;1851563;76;21824;-57
2022/04/16 12:16:50;;;;;;;12.13;9.58;;;;;;;19.70;48.24;100298.44;1848511;76;21212;-57
2022/04/16 12:20:17;;;;;;;18.52;11.83;;;;;;;19.63;49.07;100303.26;1852118;76;21185;-57
2022/04/16 12:23:31;;;;;;;15.65;9.75;;;;;;;19.48;49.11;100305.60;1854719;76;22128;-58
2022/04/16 12:26:38;;;;;;;15.45;10.53;;;;;;;19.24;49.66;100304.62;1803347;78;21717;-57
2022/04/16 12:29:45;;;;;;;17.87;11.57;;;;;;;18.98;49.91;100298.04;1853450;76;21173;-58
2022/04/16 12:33:11;;;;;;;18.80;12.13;;;;;;;18.77;50.65;100314.61;1823986;76;21169;-57
2022/04/16 12:36:19;;;;;;;15.18;9.75;;;;;;;18.57;51.68;100302.86;1854222;76;21162;-57
2022/04/16 12:39:16;;;;;;;16.50;10.68;;;;;;;18.32;52.33;100305.33;1809963;78;21517;-58
2022/04/16 12:42:21;;;;;;;14.40;10.18;;;;;;;18.13;52.75;100305.83;1851108;76;21998;-58
2022/04/16 12:45:28;;;;;;;15.13;9.93;;;;;;;17.98;53.30;100310.88;1859504;76;21157;-58
2022/04/16 12:48:33;;;;;;;18.52;10.75;;;;;;;17.87;53.99;100307.41;1837481;78;21192;-57
2022/04/16 12:51:38;;;;;;;17.70;11.00;;;;;;;17.76;54.73;100312.28;1836416;78;21169;-58
2022/04/16 12:54:46;;;;;;;14.38;11.10;;;;;;;17.68;54.81;100316.19;1836953;78;21256;-57
2022/04/16 12:57:51;;;;;;;19.25;11.20;;;;;;;17.54;55.35;100318.73;1837443;76;21165;-58
2022/04/16 13:01:03;;;;;;;17.35;10.80;;;;;;;17.42;55.69;100321.01;1841600;76;21744;-58
2022/04/16 13:04:10;;;;;;;17.02;10.93;;;;;;;17.33;56.33;100319.02;1867646;76;21332;-58
2022/04/16 13:07:16;;;;;;;16.73;12.05;;;;;;;17.24;56.55;100323.64;1861678;76;21204;-58
2022/04/16 13:10:22;;;;;;;19.90;12.03;;;;;;;17.10;56.91;100327.55;1850687;75;21232;-58
2022/04/16 13:13:31;;;;;;;16.07;11.50;;;;;;;16.90;58.01;100326.78;1836495;78;21169;-57
2022/04/16 13:16:38;;;;;;;16.55;12.37;;;;;;;16.74;58.84;100324.48;1837425;78;21157;-59
2022/04/16 13:19:45;;;;;;;14.55;12.05;;;;;;;16.61;59.77;100327.28;1837140;78;21203;-58
2022/04/16 13:22:49;;;;;;;19.55;12.95;;;;;;;16.50;60.72;100330.70;1836519;78;21548;-58
2022/04/16 13:25:57;;;;;;;19.07;12.82;;;;;;;16.36;61.75;100329.30;1836217;78;21612;-58
2022/04/16 13:29:03;;;;;;;18.67;12.20;;;;;;;16.25;62.62;100331.33;1836142;78;21247;-57
2022/04/16 13:32:09;;;;;;;22.35;14.05;;;;;;;16.14;63.25;100326.45;1836858;78;21825;-57
2022/04/16 13:35:17;;;;;;;20.02;14.58;;;;;;;16.07;63.85;100322.00;1836814;78;21687;-57
2022/04/16 13:38:23;;;;;;;21.45;15.15;;;;;;;16.02;64.70;100321.27;1844489;76;21173;-57
2022/04/16 13:41:39;;;;;;;22.32;15.15;;;;;;;15.99;65.37;100321.69;1837549;78;21153;-58
2022/04/16 13:44:46;;;;;;;25.15;15.20;;;;;;;15.95;66.02;100323.16;1856250;76;21135;-57
2022/04/16 13:47:51;;;;;;;28.42;18.27;;;;;;;15.93;66.67;100328.06;1871011;76;21158;-57
2022/04/16 13:50:56;;;;;;;25.20;18.35;;;;;;;15.89;66.76;100328.67;1871939;76;21232;-57
2022/04/16 13:54:03;;;;;;;19.48;14.73;;;;;;;15.83;67.24;100338.67;1872454;75;21217;-57
2022/04/16 13:57:12;;;;;;;24.75;17.45;;;;;;;15.77;67.89;100334.00;1872280;76;21162;-57
2022/04/16 14:00:20;;;;;;;18.27;14.23;;;;;;;15.65;68.32;100349.45;1872039;76;21678;-56
2022/04/16 14:03:29;;;;;;;18.70;15.60;;;;;;;15.53;67.77;100348.90;1870609;76;21169;-57
2022/04/16 14:06:36;;;;;;;19.17;14.30;;;;;;;15.44;68.24;100351.02;1864545;76;21296;-58
2022/04/16 14:09:43;;;;;;;26.12;18.67;;;;;;;15.34;68.19;100347.77;1847581;76;21216;-57
2022/04/16 14:12:52;;;;;;;25.77;19.70;;;;;;;15.26;68.52;100348.47;1871347;75;22060;-57
2022/04/16 14:15:58;;;;;;;33.10;23.60;;;;;;;15.20;69.13;100347.91;1871862;76;21200;-58
2022/04/16 14:19:06;;;;;;;38.85;26.90;;;;;;;15.15;69.82;100350.44;1872253;76;21213;-58
2022/04/16 14:22:19;;;;;;;27.65;21.30;;;;;;;15.05;70.57;100355.51;1872737;76;21228;-56
2022/04/16 14:25:27;;;;;;;20.52;16.48;;;;;;;14.93;71.37;100357.98;1870550;76;21165;-57
2022/04/16 14:28:39;;;;;;;23.92;15.98;;;;;;;14.72;71.72;100353.94;1870713;76;21778;-56
2022/04/16 14:31:44;;;;;;;20.80;15.90;;;;;;;14.53;72.35;100360.17;1872746;76;21176;-57
2022/04/16 14:34:53;;;;;;;21.25;16.20;;;;;;;14.38;72.90;100362.20;1872653;76;21351;-57
2022/04/16 14:37:59;;;;;;;18.32;14.50;;;;;;;14.26;73.62;100358.28;1873216;76;21141;-56
2022/04/16 14:41:13;;;;;;;16.57;13.48;;;;;;;14.10;73.76;100362.67;1872479;76;21166;-56
2022/04/16 14:44:19;;;;;;;13.78;11.48;;;;;;;13.95;73.88;100366.04;1873236;76;21232;-56
2022/04/16 14:47:27;;;;;;;16.75;11.90;;;;;;;13.83;74.14;100359.34;1873841;76;21836;-56
2022/04/16 14:50:34;;;;;;;16.93;13.00;;;;;;;13.73;74.46;100358.30;1872834;76;21216;-56
2022/04/16 14:53:41;;;;;;;15.58;12.20;;;;;;;13.66;74.99;100356.54;1872617;76;21244;-57